createdAt,value
2024-05-09T00:00:22.154Z,9.98
2024-05-09T00:01:29.783Z,11.23
2024-05-09T00:02:32.933Z,17.88
2024-05-09T00:03:36.032Z,12.18
2024-05-09T00:04:39.766Z,11.57
2024-05-09T00:05:44.074Z,12.18
2024-05-09T00:06:50.643Z,10.40
2024-05-09T00:07:53.552Z,14.55
2024-05-09T00:08:56.524Z,11.10
2024-05-09T00:09:59.455Z,9.57
2024-05-09T00:11:03.074Z,10.68
2024-05-09T00:12:06.466Z,21.63
2024-05-09T00:13:11.260Z,20.25
2024-05-09T00:14:14.447Z,13.80
2024-05-09T00:15:17.425Z,11.77
2024-05-09T00:16:20.573Z,11.15
2024-05-09T00:17:24.724Z,9.93
2024-05-09T00:18:27.811Z,9.48
2024-05-09T00:19:30.807Z,11.75
2024-05-09T00:20:38.923Z,13.70
2024-05-09T00:21:44.654Z,21.05
2024-05-09T00:22:48.381Z,12.00
2024-05-09T00:23:51.940Z,11.60
2024-05-09T00:24:57.032Z,12.10
2024-05-09T00:26:00.098Z,10.07
2024-05-09T00:27:03.076Z,9.88
2024-05-09T00:28:06.711Z,11.88
2024-05-09T00:29:09.677Z,11.07
2024-05-09T00:30:17.838Z,9.95
2024-05-09T00:31:27.630Z,11.30
2024-05-09T00:32:31.350Z,9.95
2024-05-09T00:33:35.204Z,13.27
2024-05-09T00:34:38.203Z,13.18
2024-05-09T00:35:41.688Z,10.40
2024-05-09T00:36:44.713Z,12.25
2024-05-09T00:37:47.822Z,9.35
2024-05-09T00:38:54.289Z,10.43
2024-05-09T00:39:57.280Z,13.85
2024-05-09T00:41:02.866Z,12.93
2024-05-09T00:42:05.854Z,14.35
2024-05-09T00:43:08.980Z,11.00
2024-05-09T00:44:11.964Z,13.35
2024-05-09T00:45:15.508Z,10.80
2024-05-09T00:46:18.933Z,12.23
2024-05-09T00:47:22.365Z,11.18
2024-05-09T00:48:27.272Z,15.43
2024-05-09T00:49:30.501Z,13.05
2024-05-09T00:50:37.127Z,12.30
2024-05-09T00:51:42.538Z,12.07
2024-05-09T00:52:47.655Z,14.07
2024-05-09T00:53:50.626Z,10.98
2024-05-09T00:54:56.336Z,9.57
2024-05-09T00:55:59.815Z,14.57
2024-05-09T00:57:04.969Z,12.60
2024-05-09T00:58:11.094Z,12.05
2024-05-09T00:59:14.147Z,11.85
2024-05-09T01:00:26.506Z,10.52
2024-05-09T01:01:35.205Z,13.60
2024-05-09T01:02:40.426Z,10.32
2024-05-09T01:03:44.311Z,10.35
2024-05-09T01:04:48.896Z,14.05
2024-05-09T01:05:52.452Z,11.27
2024-05-09T01:06:55.428Z,11.85
2024-05-09T01:07:58.504Z,10.63
2024-05-09T01:09:01.423Z,10.18
2024-05-09T01:10:07.152Z,14.18
2024-05-09T01:11:16.371Z,12.98
2024-05-09T01:12:19.453Z,19.23
2024-05-09T01:13:22.449Z,13.00
2024-05-09T01:14:25.513Z,11.00
2024-05-09T01:15:28.572Z,10.50
2024-05-09T01:16:32.136Z,12.40
2024-05-09T01:17:35.257Z,10.55
2024-05-09T01:18:38.423Z,10.77
2024-05-09T01:19:41.842Z,10.27
2024-05-09T01:20:45.637Z,10.30
2024-05-09T01:21:48.728Z,11.65
2024-05-09T01:22:54.323Z,8.93
2024-05-09T01:23:57.304Z,10.23
2024-05-09T01:25:00.262Z,9.40
2024-05-09T01:26:03.257Z,11.90
2024-05-09T01:27:06.181Z,13.00
2024-05-09T01:28:09.320Z,10.73
2024-05-09T01:29:12.376Z,9.25
2024-05-09T01:30:20.975Z,13.95
2024-05-09T01:31:27.455Z,10.32
2024-05-09T01:32:30.538Z,12.35
2024-05-09T01:33:33.798Z,10.65
2024-05-09T01:34:36.814Z,12.40
2024-05-09T01:35:41.786Z,15.07
2024-05-09T01:36:45.749Z,13.30
2024-05-09T01:37:48.758Z,10.70
2024-05-09T01:38:51.714Z,10.38
2024-05-09T01:39:56.607Z,13.30
2024-05-09T01:40:59.568Z,11.45
2024-05-09T01:42:02.498Z,12.75
2024-05-09T01:43:05.666Z,17.60
2024-05-09T01:44:10.098Z,8.68
2024-05-09T01:45:13.145Z,15.27
2024-05-09T01:46:16.899Z,12.95
2024-05-09T01:47:19.905Z,10.35
2024-05-09T01:48:22.994Z,10.82
2024-05-09T01:49:26.434Z,9.43
2024-05-09T01:50:37.834Z,9.27
2024-05-09T01:51:45.418Z,8.98
2024-05-09T01:52:48.415Z,11.95
2024-05-09T01:53:51.324Z,10.18
2024-05-09T01:54:54.455Z,10.95
2024-05-09T01:56:00.302Z,8.73
2024-05-09T01:57:03.211Z,13.65
2024-05-09T01:58:06.358Z,12.02
2024-05-09T01:59:10.488Z,15.63
2024-05-09T02:02:12.572Z,11.45
2024-05-09T02:03:17.517Z,12.68
2024-05-09T02:04:21.289Z,12.50
2024-05-09T02:05:24.505Z,12.75
2024-05-09T02:06:27.479Z,13.40
2024-05-09T02:07:31.143Z,14.30
2024-05-09T02:08:34.177Z,15.70
2024-05-09T02:09:37.193Z,15.68
2024-05-09T02:10:40.151Z,12.18
2024-05-09T02:11:48.439Z,12.40
2024-05-09T02:12:51.517Z,9.55
2024-05-09T02:13:54.581Z,11.60
2024-05-09T02:15:01.280Z,12.38
2024-05-09T02:16:04.449Z,15.95
2024-05-09T02:17:07.510Z,12.10
2024-05-09T02:18:11.107Z,12.93
2024-05-09T02:19:14.604Z,12.10
2024-05-09T02:20:27.103Z,14.45
2024-05-09T02:21:36.730Z,11.00
2024-05-09T02:22:39.784Z,15.30
2024-05-09T02:23:42.926Z,14.55
2024-05-09T02:24:45.971Z,12.07
2024-05-09T02:25:49.835Z,13.95
2024-05-09T02:26:52.802Z,13.60
2024-05-09T02:27:55.733Z,13.52
2024-05-09T02:28:58.709Z,12.38
2024-05-09T02:30:02.171Z,14.00
2024-05-09T02:31:05.232Z,15.68
2024-05-09T02:32:08.336Z,14.32
2024-05-09T02:33:13.225Z,12.52
2024-05-09T02:34:17.326Z,11.02
2024-05-09T02:35:20.497Z,11.20
2024-05-09T02:36:25.082Z,12.40
2024-05-09T02:37:29.370Z,11.32
2024-05-09T02:38:33.487Z,10.60
2024-05-09T02:39:36.438Z,14.38
2024-05-09T02:40:40.281Z,9.93
2024-05-09T02:41:43.712Z,11.50
2024-05-09T02:42:46.667Z,13.00
2024-05-09T02:43:50.892Z,10.13
2024-05-09T02:44:54.846Z,10.75
2024-05-09T02:45:57.740Z,11.68
2024-05-09T02:47:00.671Z,10.90
2024-05-09T02:48:07.226Z,12.43
2024-05-09T02:49:10.389Z,11.73
2024-05-09T02:50:16.236Z,11.88
2024-05-09T02:51:22.478Z,12.43
2024-05-09T02:52:25.410Z,9.55
2024-05-09T02:53:28.835Z,11.98
2024-05-09T02:54:31.786Z,11.93
2024-05-09T02:55:35.075Z,12.38
2024-05-09T02:56:38.127Z,13.32
2024-05-09T02:57:41.211Z,12.50
2024-05-09T02:58:44.445Z,9.98
2024-05-09T02:59:48.266Z,12.35
2024-05-09T03:00:51.466Z,11.15
2024-05-09T03:01:54.738Z,12.80
2024-05-09T03:02:58.150Z,12.32
2024-05-09T03:04:04.684Z,9.45
2024-05-09T03:05:07.848Z,11.63
2024-05-09T03:06:10.736Z,11.60
2024-05-09T03:07:13.603Z,10.50
2024-05-09T03:11:40.762Z,10.05
2024-05-09T03:12:43.954Z,11.27
2024-05-09T03:13:46.948Z,14.50
2024-05-09T03:14:51.190Z,11.75
2024-05-09T03:15:54.111Z,10.43
2024-05-09T03:16:57.065Z,11.00
2024-05-09T03:18:01.186Z,11.73
2024-05-09T03:19:05.899Z,11.25
2024-05-09T03:20:17.395Z,12.52
2024-05-09T03:21:26.661Z,13.18
2024-05-09T03:22:29.581Z,13.48
2024-05-09T03:23:32.656Z,12.32
2024-05-09T03:24:35.646Z,10.32
2024-05-09T03:25:39.257Z,11.35
2024-05-09T03:26:42.262Z,12.75
2024-05-09T03:27:45.214Z,12.27
2024-05-09T03:28:48.270Z,9.45
2024-05-09T03:29:51.768Z,12.48
2024-05-09T03:30:54.716Z,15.32
2024-05-09T03:31:57.716Z,11.30
2024-05-09T03:33:00.919Z,12.57
2024-05-09T03:34:04.577Z,11.57
2024-05-09T03:35:08.227Z,16.23
2024-05-09T03:36:11.529Z,12.18
2024-05-09T03:37:14.683Z,11.77
2024-05-09T03:38:17.924Z,13.70
2024-05-09T03:39:21.230Z,10.45
2024-05-09T03:40:28.912Z,12.57
2024-05-09T03:41:33.626Z,11.80
2024-05-09T03:42:40.843Z,12.27
2024-05-09T03:43:44.593Z,16.38
2024-05-09T03:44:47.548Z,10.63
2024-05-09T03:45:53.209Z,13.90
2024-05-09T03:46:56.306Z,11.30
2024-05-09T03:47:59.514Z,16.35
2024-05-09T03:49:02.703Z,10.85
2024-05-09T03:50:11.972Z,11.73
2024-05-09T03:51:17.916Z,13.98
2024-05-09T03:52:20.975Z,15.05
2024-05-09T03:53:25.744Z,16.20
2024-05-09T03:54:29.317Z,14.05
2024-05-09T03:55:32.788Z,13.70
2024-05-09T03:56:35.866Z,9.93
2024-05-09T03:57:39.800Z,14.70
2024-05-09T03:58:42.708Z,11.48
2024-05-09T03:59:45.668Z,9.40
2024-05-09T04:00:48.629Z,10.57
2024-05-09T04:01:51.728Z,10.23
2024-05-09T04:02:55.256Z,10.27
2024-05-09T04:03:58.358Z,10.13
2024-05-09T04:05:01.477Z,9.90
2024-05-09T04:06:05.848Z,11.73
2024-05-09T04:07:08.999Z,10.48
2024-05-09T04:08:12.197Z,8.65
2024-05-09T04:09:15.187Z,10.48
2024-05-09T04:10:27.654Z,9.57
2024-05-09T04:11:35.839Z,9.40
2024-05-09T04:12:39.037Z,9.75
2024-05-09T04:13:43.071Z,10.90
2024-05-09T04:14:46.083Z,10.55
2024-05-09T04:15:49.157Z,9.02
2024-05-09T04:16:52.235Z,11.23
2024-05-09T04:17:55.494Z,10.77
2024-05-09T04:18:58.803Z,10.50
2024-05-09T04:20:01.855Z,9.60
2024-05-09T04:21:05.478Z,10.85
2024-05-09T04:22:08.612Z,8.45
2024-05-09T04:23:14.684Z,12.63
2024-05-09T04:24:17.957Z,10.07
2024-05-09T04:25:20.874Z,10.50
2024-05-09T04:26:24.508Z,10.82
2024-05-09T04:27:27.556Z,11.32
2024-05-09T04:28:30.904Z,10.38
2024-05-09T04:29:37.483Z,8.65
2024-05-09T04:30:41.715Z,11.55
2024-05-09T04:31:45.366Z,7.65
2024-05-09T04:32:48.422Z,9.77
2024-05-09T04:33:51.708Z,10.23
2024-05-09T04:34:54.751Z,9.10
2024-05-09T04:35:57.725Z,10.38
2024-05-09T04:37:00.734Z,8.25
2024-05-09T04:38:03.760Z,8.48
2024-05-09T04:39:06.742Z,9.45
2024-05-09T04:40:20.491Z,10.93
2024-05-09T04:41:27.342Z,9.75
2024-05-09T04:42:30.307Z,7.75
2024-05-09T04:43:35.336Z,9.27
2024-05-09T04:44:38.299Z,7.90
2024-05-09T04:45:41.572Z,9.68
2024-05-09T04:46:45.037Z,8.57
2024-05-09T04:47:48.458Z,8.35
2024-05-09T04:48:51.681Z,9.52
2024-05-09T04:49:54.747Z,9.50
2024-05-09T04:50:57.687Z,12.43
2024-05-09T04:52:00.776Z,10.45
2024-05-09T04:53:03.914Z,7.93
2024-05-09T04:54:10.640Z,8.45
2024-05-09T04:55:13.754Z,10.43
2024-05-09T04:56:16.738Z,9.45
2024-05-09T04:57:19.734Z,7.95
2024-05-09T04:58:22.666Z,11.35
2024-05-09T04:59:25.834Z,8.57
2024-05-09T05:00:35.798Z,8.27
2024-05-09T05:01:42.021Z,15.40
2024-05-09T05:02:45.040Z,8.63
2024-05-09T05:03:48.205Z,10.98
2024-05-09T05:04:51.414Z,8.90
2024-05-09T05:05:56.232Z,9.55
2024-05-09T05:07:02.102Z,11.25
2024-05-09T05:08:06.308Z,7.68
2024-05-09T05:09:09.307Z,9.75
2024-05-09T05:10:17.907Z,8.68
2024-05-09T05:11:30.923Z,10.45
2024-05-09T05:12:52.896Z,7.70
2024-05-09T05:13:55.895Z,15.70
2024-05-09T05:14:58.880Z,7.57
2024-05-09T05:16:01.875Z,9.68
2024-05-09T05:17:04.957Z,11.10
2024-05-09T05:18:08.337Z,10.98
2024-05-09T05:19:13.504Z,7.35
2024-05-09T05:20:27.153Z,8.40
2024-05-09T05:21:35.515Z,8.65
2024-05-09T05:22:38.525Z,7.38
2024-05-09T05:23:41.740Z,8.07
2024-05-09T05:24:44.805Z,7.20
2024-05-09T05:25:49.313Z,7.93
2024-05-09T05:26:52.368Z,7.75
2024-05-09T05:27:55.474Z,8.10
2024-05-09T05:28:58.643Z,10.55
2024-05-09T05:30:01.579Z,9.85
2024-05-09T05:31:04.684Z,9.57
2024-05-09T05:32:08.153Z,8.57
2024-05-09T05:33:13.622Z,9.85
2024-05-09T05:34:16.635Z,8.13
2024-05-09T05:35:21.687Z,7.65
2024-05-09T05:36:24.662Z,7.60
2024-05-09T05:37:27.550Z,7.95
2024-05-09T05:38:30.509Z,7.68
2024-05-09T05:39:33.467Z,7.50
2024-05-09T05:40:38.557Z,9.38
2024-05-09T05:41:42.797Z,8.50
2024-05-09T05:42:48.298Z,10.50
2024-05-09T05:43:51.196Z,8.52
2024-05-09T05:44:54.319Z,7.70
2024-05-09T05:45:57.261Z,9.13
2024-05-09T05:47:00.312Z,7.47
2024-05-09T05:48:05.889Z,7.93
2024-05-09T05:49:09.765Z,8.93
2024-05-09T05:50:23.678Z,8.18
2024-05-09T05:51:30.677Z,7.55
2024-05-09T05:52:33.550Z,7.13
2024-05-09T05:53:36.755Z,8.10
2024-05-09T05:54:39.752Z,8.57
2024-05-09T05:55:42.826Z,8.73
2024-05-09T05:56:46.343Z,7.60
2024-05-09T05:57:49.347Z,8.57
2024-05-09T05:58:52.272Z,8.45
2024-05-09T05:59:55.408Z,8.13
2024-05-09T06:00:58.330Z,10.13
2024-05-09T06:02:01.284Z,8.07
2024-05-09T06:03:04.874Z,7.50
2024-05-09T06:04:08.249Z,8.57
2024-05-09T06:05:11.533Z,7.07
2024-05-09T06:06:14.593Z,7.05
2024-05-09T06:07:17.834Z,7.95
2024-05-09T06:08:26.198Z,9.60
2024-05-09T06:09:30.900Z,8.48
2024-05-09T06:10:39.687Z,10.90
2024-05-09T06:11:44.104Z,13.68
2024-05-09T06:12:47.261Z,9.05
2024-05-09T06:13:50.224Z,9.32
2024-05-09T06:14:53.139Z,8.85
2024-05-09T06:15:56.041Z,7.90
2024-05-09T06:16:59.209Z,7.93
2024-05-09T06:18:02.540Z,10.15
2024-05-09T06:19:05.742Z,8.65
2024-05-09T06:20:16.643Z,8.80
2024-05-09T06:21:26.413Z,8.02
2024-05-09T06:22:29.323Z,9.38
2024-05-09T06:23:32.379Z,9.68
2024-05-09T06:24:35.515Z,9.60
2024-05-09T06:25:38.958Z,8.75
2024-05-09T06:26:42.856Z,9.75
2024-05-09T06:27:45.846Z,10.10
2024-05-09T06:28:48.811Z,9.23
2024-05-09T06:29:51.842Z,9.38
2024-05-09T06:30:54.766Z,11.57
2024-05-09T06:32:00.121Z,9.18
2024-05-09T06:33:04.042Z,9.57
2024-05-09T06:34:07.344Z,7.38
2024-05-09T06:35:10.377Z,9.65
2024-05-09T06:36:13.706Z,7.40
2024-05-09T06:37:16.644Z,11.90
2024-05-09T06:38:19.786Z,6.90
2024-05-09T06:39:24.072Z,7.30
2024-05-09T06:40:36.086Z,9.55
2024-05-09T06:41:41.718Z,9.10
2024-05-09T06:42:44.654Z,8.52
2024-05-09T06:43:47.596Z,7.75
2024-05-09T06:44:50.567Z,9.82
2024-05-09T06:45:54.656Z,7.72
2024-05-09T06:46:59.860Z,9.75
2024-05-09T06:48:03.959Z,7.88
2024-05-09T06:49:08.351Z,9.50
2024-05-09T06:50:19.723Z,7.35
2024-05-09T06:51:28.918Z,8.07
2024-05-09T06:52:31.782Z,8.27
2024-05-09T06:53:40.000Z,6.03
2024-05-09T06:54:43.774Z,6.28
2024-05-09T06:55:46.934Z,7.68
2024-05-09T06:56:50.032Z,8.07
2024-05-09T06:57:52.932Z,6.97
2024-05-09T06:59:00.389Z,7.93
2024-05-09T07:00:03.871Z,10.73
2024-05-09T07:01:07.154Z,5.93
2024-05-09T07:02:10.374Z,13.93
2024-05-09T07:03:18.132Z,8.02
2024-05-09T07:04:22.689Z,6.65
2024-05-09T07:05:26.094Z,8.13
2024-05-09T07:06:32.069Z,9.50
2024-05-09T07:07:35.050Z,9.30
2024-05-09T07:08:38.041Z,8.40
2024-05-09T07:09:41.490Z,10.45
2024-05-09T07:10:44.756Z,7.95
2024-05-09T07:11:47.966Z,9.57
2024-05-09T07:12:51.271Z,9.60
2024-05-09T07:13:54.603Z,8.50
2024-05-09T07:14:57.890Z,10.75
2024-05-09T07:16:00.990Z,9.23
2024-05-09T07:17:04.366Z,9.80
2024-05-09T07:18:21.454Z,7.40
2024-05-09T07:19:24.767Z,8.50
2024-05-09T07:20:34.457Z,8.07
2024-05-09T07:21:38.128Z,7.00
2024-05-09T07:22:41.115Z,7.93
2024-05-09T07:23:46.838Z,9.50
2024-05-09T07:24:50.252Z,7.85
2024-05-09T07:25:53.337Z,8.38
2024-05-09T07:26:59.927Z,7.38
2024-05-09T07:28:02.814Z,7.32
2024-05-09T07:29:05.853Z,10.25
2024-05-09T07:30:16.660Z,9.43
2024-05-09T07:31:28.161Z,9.07
2024-05-09T07:32:31.775Z,6.85
2024-05-09T07:33:34.861Z,8.90
2024-05-09T07:34:37.859Z,10.05
2024-05-09T07:35:40.840Z,10.50
2024-05-09T07:36:43.941Z,10.02
2024-05-09T07:37:46.917Z,10.32
2024-05-09T07:38:50.177Z,14.30
2024-05-09T07:39:53.193Z,6.85
2024-05-09T07:40:56.109Z,8.55
2024-05-09T07:41:59.163Z,10.07
2024-05-09T07:43:13.885Z,11.52
2024-05-09T07:44:16.911Z,8.98
2024-05-09T07:45:39.891Z,12.00
2024-05-09T07:49:13.638Z,11.45
2024-05-09T07:52:32.579Z,9.85
2024-05-09T07:53:36.553Z,9.20
2024-05-09T07:54:29.356Z,11.68
2024-05-09T07:55:32.808Z,11.75
2024-05-09T07:56:36.193Z,10.77
2024-05-09T07:57:39.371Z,8.48
2024-05-09T07:58:46.125Z,8.93
2024-05-09T07:59:49.056Z,8.10
2024-05-09T08:00:52.080Z,10.98
2024-05-09T08:01:55.269Z,10.13
2024-05-09T08:02:58.414Z,10.48
2024-05-09T08:04:01.756Z,8.48
2024-05-09T08:05:05.110Z,5.72
2024-05-09T08:06:08.144Z,8.07
2024-05-09T08:07:13.591Z,7.20
2024-05-09T08:08:16.903Z,8.23
2024-05-09T08:09:21.376Z,7.85
2024-05-09T08:10:28.747Z,10.85
2024-05-09T08:11:33.657Z,8.93
2024-05-09T08:12:36.690Z,7.13
2024-05-09T08:13:39.606Z,5.75
2024-05-09T08:14:42.552Z,8.00
2024-05-09T08:15:45.528Z,7.18
2024-05-09T08:16:48.577Z,6.07
2024-05-09T08:17:51.653Z,10.35
2024-05-09T08:18:54.914Z,6.45
2024-05-09T08:19:57.879Z,9.10
2024-05-09T08:21:00.896Z,7.68
2024-05-09T08:22:07.048Z,8.35
2024-05-09T08:23:11.661Z,6.55
2024-05-09T08:24:14.703Z,8.32
2024-05-09T08:25:17.853Z,5.80
2024-05-09T08:26:20.943Z,8.15
2024-05-09T08:27:26.348Z,6.50
2024-05-09T08:28:29.378Z,5.43
2024-05-09T08:29:32.763Z,6.63
2024-05-09T08:30:38.113Z,6.05
2024-05-09T08:31:41.719Z,7.85
2024-05-09T08:32:47.897Z,5.38
2024-05-09T08:33:51.778Z,5.95
2024-05-09T08:34:54.950Z,7.07
2024-05-09T08:35:59.399Z,7.97
2024-05-09T08:37:10.094Z,7.35
2024-05-09T08:38:18.476Z,5.75
2024-05-09T08:39:21.361Z,8.18
2024-05-09T08:40:31.057Z,8.90
2024-05-09T08:41:42.697Z,10.95
2024-05-09T08:42:49.924Z,6.85
2024-05-09T08:43:52.937Z,11.05
2024-05-09T08:44:55.830Z,7.20
2024-05-09T08:45:59.850Z,6.43
2024-05-09T08:47:08.495Z,4.32
2024-05-09T08:48:15.135Z,6.78
2024-05-09T08:49:19.336Z,7.22
2024-05-09T08:50:31.935Z,5.30
2024-05-09T08:51:41.288Z,6.97
2024-05-09T08:52:44.734Z,6.35
2024-05-09T08:53:47.704Z,9.30
2024-05-09T08:54:50.767Z,5.70
2024-05-09T08:55:55.862Z,4.00
2024-05-09T08:56:59.727Z,5.43
2024-05-09T08:58:04.573Z,4.30
2024-05-09T08:59:09.888Z,5.50
2024-05-09T09:00:18.142Z,4.85
2024-05-09T09:01:38.133Z,6.82
2024-05-09T09:02:44.710Z,11.30
2024-05-09T09:03:49.091Z,4.93
2024-05-09T09:05:00.126Z,4.22
2024-05-09T09:06:07.763Z,10.43
2024-05-09T09:07:11.440Z,5.38
2024-05-09T09:08:16.236Z,5.50
2024-05-09T09:09:19.273Z,5.70
2024-05-09T09:10:29.792Z,6.18
2024-05-09T09:11:35.194Z,5.22
2024-05-09T09:12:38.228Z,7.93
2024-05-09T09:13:43.753Z,6.32
2024-05-09T09:14:46.827Z,7.78
2024-05-09T09:15:50.847Z,4.88
2024-05-09T09:16:55.488Z,5.75
2024-05-09T09:17:59.221Z,5.03
2024-05-09T09:19:05.245Z,8.82
2024-05-09T09:20:14.212Z,5.38
2024-05-09T09:21:19.613Z,7.38
2024-05-09T09:22:22.509Z,5.38
2024-05-09T09:23:30.356Z,8.18
2024-05-09T09:24:33.537Z,5.15
2024-05-09T09:25:39.788Z,4.47
2024-05-09T09:26:47.728Z,3.47
2024-05-09T09:27:50.723Z,6.00
2024-05-09T09:28:53.862Z,3.92
2024-05-09T09:29:57.324Z,7.70
2024-05-09T09:31:04.099Z,7.75
2024-05-09T09:32:11.246Z,6.45
2024-05-09T09:33:14.405Z,7.40
2024-05-09T09:34:18.372Z,6.70
2024-05-09T09:35:21.458Z,4.50
2024-05-09T09:36:29.561Z,6.13
2024-05-09T09:37:32.986Z,4.53
2024-05-09T09:38:37.870Z,4.50
2024-05-09T09:39:42.208Z,8.25
2024-05-09T09:40:49.713Z,3.78
2024-05-09T09:41:55.013Z,3.63
2024-05-09T09:42:58.491Z,5.60
2024-05-09T09:44:02.779Z,5.57
2024-05-09T09:45:06.762Z,5.82
2024-05-09T09:46:12.593Z,11.02
2024-05-09T09:47:19.195Z,6.55
2024-05-09T09:48:23.214Z,7.85
2024-05-09T09:49:27.637Z,10.30
2024-05-09T09:50:34.491Z,5.45
2024-05-09T09:51:43.592Z,6.72
2024-05-09T09:52:47.881Z,7.90
2024-05-09T09:53:53.319Z,4.80
2024-05-09T09:54:57.875Z,5.50
2024-05-09T09:56:02.620Z,7.43
2024-05-09T09:57:07.669Z,8.68
2024-05-09T09:58:13.912Z,7.85
2024-05-09T09:59:17.599Z,6.22
2024-05-09T10:00:27.258Z,6.10
2024-05-09T10:01:36.453Z,6.72
2024-05-09T10:02:40.613Z,8.60
2024-05-09T10:03:48.316Z,10.25
2024-05-09T10:04:51.697Z,7.13
2024-05-09T10:05:55.428Z,7.38
2024-05-09T10:07:05.009Z,5.28
2024-05-09T10:08:13.225Z,5.47
2024-05-09T10:09:18.215Z,4.85
2024-05-09T10:10:32.171Z,5.35
2024-05-09T10:11:45.022Z,3.90
2024-05-09T10:13:04.652Z,7.70
2024-05-09T10:14:07.960Z,3.42
2024-05-09T10:15:11.335Z,5.55
2024-05-09T10:16:23.095Z,7.85
2024-05-09T10:17:26.186Z,7.18
2024-05-09T10:18:37.439Z,6.00
2024-05-09T10:19:40.614Z,5.40
2024-05-09T10:20:49.271Z,6.85
2024-05-09T10:21:52.513Z,8.48
2024-05-09T10:22:56.503Z,6.45
2024-05-09T10:24:02.474Z,4.38
2024-05-09T10:25:07.946Z,5.38
2024-05-09T10:26:11.012Z,11.38
2024-05-09T10:27:13.971Z,4.20
2024-05-09T10:28:17.372Z,3.75
2024-05-09T10:29:20.963Z,3.88
2024-05-09T10:31:30.409Z,4.75
2024-05-09T10:32:41.314Z,4.15
2024-05-09T10:33:52.430Z,7.63
2024-05-09T10:35:06.455Z,6.72
2024-05-09T10:36:19.078Z,3.67
2024-05-09T10:37:22.554Z,6.72
2024-05-09T10:38:25.625Z,4.25
2024-05-09T10:39:39.002Z,6.88
2024-05-09T10:40:43.018Z,6.90
2024-05-09T10:41:46.099Z,5.32
2024-05-09T10:42:52.035Z,5.90
2024-05-09T10:43:55.317Z,4.68
2024-05-09T10:44:59.931Z,5.70
2024-05-09T10:46:03.010Z,4.72
2024-05-09T10:47:06.127Z,5.43
2024-05-09T10:48:09.489Z,5.43
2024-05-09T10:49:15.514Z,3.03
2024-05-09T10:50:25.535Z,5.38
2024-05-09T10:51:31.916Z,4.25
2024-05-09T10:52:35.107Z,4.68
2024-05-09T10:53:45.386Z,3.80
2024-05-09T10:54:54.862Z,3.95
2024-05-09T10:56:00.183Z,9.20
2024-05-09T10:57:03.455Z,13.05
2024-05-09T10:58:17.448Z,11.70
2024-05-09T10:59:20.459Z,5.10
2024-05-09T11:00:30.250Z,5.55
2024-05-09T11:01:37.413Z,6.35
2024-05-09T11:02:40.561Z,5.10
2024-05-09T11:03:52.518Z,6.10
2024-05-09T11:04:58.047Z,5.97
2024-05-09T11:06:01.631Z,4.50
2024-05-09T11:07:12.676Z,5.70
2024-05-09T11:08:16.523Z,4.45
2024-05-09T11:09:19.808Z,5.55
2024-05-09T11:10:27.829Z,9.07
2024-05-09T11:11:36.935Z,8.13
2024-05-09T11:12:39.919Z,5.35
2024-05-09T11:13:42.838Z,3.33
2024-05-09T11:14:55.337Z,3.15
2024-05-09T11:17:05.631Z,4.45
2024-05-09T11:18:09.101Z,5.90
2024-05-09T11:19:14.132Z,11.68
2024-05-09T11:20:23.250Z,4.65
2024-05-09T11:21:32.493Z,5.75
2024-05-09T11:22:35.457Z,4.65
2024-05-09T11:23:38.588Z,5.85
2024-05-09T11:24:41.666Z,4.78
2024-05-09T11:26:15.374Z,9.05
2024-05-09T11:27:21.283Z,4.30
2024-05-09T11:28:24.530Z,5.55
2024-05-09T11:29:44.812Z,4.72
2024-05-09T11:30:48.958Z,6.88
2024-05-09T11:31:52.080Z,13.45
2024-05-09T11:32:55.593Z,6.15
2024-05-09T11:34:00.786Z,6.07
2024-05-09T11:35:03.744Z,6.63
2024-05-09T11:36:07.732Z,7.68
2024-05-09T11:37:11.236Z,6.32
2024-05-09T11:38:14.452Z,5.18
2024-05-09T11:39:17.639Z,3.97
2024-05-09T11:40:25.605Z,6.30
2024-05-09T11:41:35.968Z,7.43
2024-05-09T11:42:39.587Z,5.78
2024-05-09T11:43:45.478Z,4.50
2024-05-09T11:44:48.477Z,5.50
2024-05-09T11:45:51.640Z,5.90
2024-05-09T11:46:58.911Z,3.28
2024-05-09T11:48:02.022Z,6.97
2024-05-09T11:49:05.371Z,4.07
2024-05-09T11:50:13.107Z,5.50
2024-05-09T11:51:22.310Z,4.18
2024-05-09T11:52:27.821Z,6.10
2024-05-09T11:53:30.766Z,7.95
2024-05-09T11:54:34.009Z,3.88
2024-05-09T11:55:38.140Z,5.22
2024-05-09T11:56:41.192Z,4.10
2024-05-09T11:57:44.131Z,3.28
2024-05-09T11:58:47.268Z,5.30
2024-05-09T11:59:50.360Z,6.57
2024-05-09T12:00:53.487Z,12.20
2024-05-09T12:02:02.579Z,4.25
2024-05-09T12:03:06.268Z,4.93
2024-05-09T12:04:09.891Z,5.65
2024-05-09T12:05:13.690Z,5.40
2024-05-09T12:06:17.002Z,4.93
2024-05-09T12:07:21.128Z,6.57
2024-05-09T12:08:24.176Z,4.00
2024-05-09T12:09:30.158Z,5.90
2024-05-09T12:10:35.529Z,6.25
2024-05-09T12:11:39.805Z,7.30
2024-05-09T12:12:43.072Z,4.40
2024-05-09T12:13:45.984Z,8.30
2024-05-09T12:14:48.964Z,5.38
2024-05-09T12:15:51.996Z,3.75
2024-05-09T12:16:54.998Z,9.10
2024-05-09T12:18:00.227Z,7.70
2024-05-09T12:19:05.872Z,3.67
2024-05-09T12:20:14.262Z,6.13
2024-05-09T12:21:26.416Z,4.75
2024-05-09T12:22:29.387Z,6.03
2024-05-09T12:23:32.334Z,9.32
2024-05-09T12:24:35.309Z,8.00
2024-05-09T12:25:39.911Z,9.93
2024-05-09T12:26:45.935Z,4.22
2024-05-09T12:27:48.967Z,4.30
2024-05-09T12:28:52.065Z,4.32
2024-05-09T12:29:55.220Z,5.90
2024-05-09T12:30:58.331Z,6.95
2024-05-09T12:32:03.614Z,5.38
2024-05-09T12:33:08.619Z,11.80
2024-05-09T12:34:11.986Z,5.38
2024-05-09T12:35:15.100Z,3.95
2024-05-09T12:36:18.091Z,5.82
2024-05-09T12:37:21.162Z,6.32
2024-05-09T12:38:24.176Z,7.55
2024-05-09T12:39:27.057Z,5.05
2024-05-09T12:40:36.021Z,6.40
2024-05-09T12:41:41.301Z,4.45
2024-05-09T12:42:44.585Z,5.90
2024-05-09T12:43:48.899Z,10.18
2024-05-09T12:44:51.906Z,5.93
2024-05-09T12:45:55.059Z,4.38
2024-05-09T12:46:58.387Z,7.38
2024-05-09T12:48:03.385Z,6.63
2024-05-09T12:49:06.742Z,3.78
2024-05-09T12:50:18.947Z,5.10
2024-05-09T12:51:28.092Z,4.32
2024-05-09T12:52:31.118Z,5.15
2024-05-09T12:53:34.120Z,10.38
2024-05-09T12:54:37.117Z,4.55
2024-05-09T12:55:48.141Z,4.15
2024-05-09T12:56:56.831Z,7.50
2024-05-09T12:58:00.061Z,6.63
2024-05-09T12:59:03.167Z,4.72
2024-05-09T13:00:09.357Z,4.65
2024-05-09T13:01:14.610Z,5.70
2024-05-09T13:02:18.391Z,5.90
2024-05-09T13:03:22.008Z,6.05
2024-05-09T13:04:25.374Z,4.82
2024-05-09T13:05:28.822Z,12.35
2024-05-09T13:06:32.209Z,6.10
2024-05-09T13:07:36.560Z,4.97
2024-05-09T13:08:40.056Z,7.30
2024-05-09T13:09:43.110Z,4.50
2024-05-09T13:10:46.401Z,5.07
2024-05-09T13:11:49.611Z,8.02
2024-05-09T13:12:52.851Z,4.43
2024-05-09T13:13:55.822Z,4.07
2024-05-09T13:14:58.798Z,5.63
2024-05-09T13:16:01.802Z,4.43
2024-05-09T13:17:05.624Z,5.82
2024-05-09T13:18:09.832Z,7.45
2024-05-09T13:19:12.841Z,5.47
2024-05-09T13:20:25.691Z,5.57
2024-05-09T13:21:32.593Z,8.07
2024-05-09T13:22:35.816Z,7.70
2024-05-09T13:23:38.812Z,4.40
2024-05-09T13:24:42.910Z,6.18
2024-05-09T13:25:46.248Z,7.47
2024-05-09T13:26:49.192Z,7.45
2024-05-09T13:27:52.790Z,5.78
2024-05-09T13:28:55.696Z,7.20
2024-05-09T13:29:58.622Z,4.30
2024-05-09T13:31:01.629Z,9.50
2024-05-09T13:32:04.789Z,4.20
2024-05-09T13:33:08.674Z,9.32
2024-05-09T13:34:11.829Z,6.00
2024-05-09T13:35:14.922Z,3.92
2024-05-09T13:36:17.853Z,4.80
2024-05-09T13:37:20.887Z,3.15
2024-05-09T13:38:24.065Z,5.05
2024-05-09T13:39:27.022Z,7.40
2024-05-09T13:40:34.288Z,7.68
2024-05-09T13:41:39.042Z,7.53
2024-05-09T13:42:41.950Z,5.13
2024-05-09T13:43:44.891Z,4.82
2024-05-09T13:44:47.812Z,7.45
2024-05-09T13:45:50.911Z,9.60
2024-05-09T13:46:53.903Z,6.40
2024-05-09T13:47:57.236Z,5.15
2024-05-09T13:49:00.651Z,6.18
2024-05-09T13:50:06.906Z,5.50
2024-05-09T13:51:12.052Z,4.63
2024-05-09T13:52:15.156Z,3.97
2024-05-09T13:53:18.133Z,7.03
2024-05-09T13:54:22.531Z,4.60
2024-05-09T13:55:25.661Z,3.72
2024-05-09T13:56:28.624Z,6.60
2024-05-09T13:57:31.629Z,6.32
2024-05-09T13:58:34.711Z,4.65
2024-05-09T13:59:37.704Z,3.65
2024-05-09T14:00:46.441Z,3.72
2024-05-09T14:01:52.590Z,5.72
2024-05-09T14:02:55.958Z,5.53
2024-05-09T14:03:59.062Z,7.45
2024-05-09T14:05:02.421Z,3.15
2024-05-09T14:06:06.235Z,5.57
2024-05-09T14:07:10.728Z,5.07
2024-05-09T14:08:15.403Z,4.97
2024-05-09T14:09:18.708Z,5.35
2024-05-09T14:10:28.501Z,4.72
2024-05-09T14:11:33.881Z,4.57
2024-05-09T14:12:36.965Z,4.45
2024-05-09T14:13:39.835Z,5.25
2024-05-09T14:14:42.742Z,6.50
2024-05-09T14:15:46.664Z,7.88
2024-05-09T14:16:50.023Z,7.05
2024-05-09T14:17:53.257Z,4.00
2024-05-09T14:18:56.320Z,3.25
2024-05-09T14:19:59.367Z,5.65
2024-05-09T14:21:02.466Z,7.22
2024-05-09T14:22:06.780Z,4.82
2024-05-09T14:23:10.066Z,4.28